CBL2 weather

Buck Lake Seaplane Base
Severn Bridge, Ontario, Canada

Public forecast

Using degrees Celsius for public forecast. Weather courtesy of forecast.io.

Closest aviation weather report (METAR) to Buck Lake Seaplane Base

Closest report is Muskoka Airport, 13.1 nm (24.2 km) NNE. Retrieved 2019/12/05 19:11 UTC (3 minutes ago):

CYQA 051911Z AUTO 32010KT 9SM SCT028 M04/M09 A2984 RMK SLP123

Closest aviation forecast (TAF) to Buck Lake Seaplane Base

Closest forecast is Muskoka Airport, 13.1 nm (24.2 km) NNE. Retrieved 2019/12/05 20:00 UTC (0 seconds ago):

TAF CYQA 051938Z 0520/0603 31010G20KT P6SM OVC070 TEMPO 0520/0603 P6SM -SN OVC020 BECMG 0600/0602 VRB03KT RMK FCST BASED ON AUTO OBS NXT FCST WILL BE ISSUED AT 061245Z